メインページ
METAR-TAF:

METAR-TAF

空港 :

ソルトレイクシティ国際空港

ソルトレイクシティ, ユタ州, アメリカ合衆国

緯度: 40-46-41N, 経度: 111-58-10W, 海抜: 1288m

現時点の気象観測

当レポートは1時間0分前の22:54(UTC)に作成
北/北東の風 6kt
気温 36°C
湿度 16%
気圧 1016 hPa
視程: 16.1km
高度9500ftの雲はほとんどない
高度15000ftの雲はほとんどない
高度25000ftの雲は散在している

METAR: KSLC 162254Z 02006KT 10SM FEW095 FEW150 SCT250 36/06 A3001 RMK AO2 SLP096 CB DSNT N TCU DSNT SW T03560056

時間: 17:54 (23:54 UTC)

予報

当レポートは34分前の23:20(UTC)に作成
予報は17日の 00時(UTC)から 18日の 06時(UTC)まで有効
北/北西の風 10kt
視程: 10km
高度11000ftの雲は散在している
17日の 0400時(UTC)から
南/南東の風 7kt
視程: 10km
高度11000ftの雲はほとんどない
17日の 1800時(UTC)から
北西の風 7kt
視程: 10km
高度10000ftの雲は散在している

TAF: KSLC 162320Z 1700/1806 33010KT P6SM SCT110 FM170400 15007KT P6SM FEW110 FM171800 32007KT P6SM SCT100

4,000以上の空港の気象観測と天気予報(METAR報とTAF報)

利用可能な観測所は地図上に黄色い丸と赤い丸で示す。

丸の上にカーソルを重ねると観測所名を参照できる。

次にクリックすると気象観測と天気予報を参照できる。

マップの切り替え:黒色「×」印の緑ボタンをクリックして拡大、「-」印の緑ボタンをクリックして縮小、緑色の三角印をクリックして隣りの地図に切り替え


METAR-TAF: